createdAt,value
2023-04-09T00:00:04.017Z,15.80
2023-04-09T00:02:32.495Z,14.40
2023-04-09T00:05:02.249Z,14.40
2023-04-09T00:07:30.497Z,13.60
2023-04-09T00:09:59.264Z,14.30
2023-04-09T00:12:27.502Z,14.80
2023-04-09T00:14:55.793Z,14.00
2023-04-09T00:17:24.120Z,13.90
2023-04-09T00:19:52.324Z,14.60
2023-04-09T00:22:20.494Z,13.90
2023-04-09T00:24:48.834Z,13.80
2023-04-09T00:27:17.146Z,14.70
2023-04-09T00:29:45.975Z,14.40
2023-04-09T00:32:14.471Z,13.90
2023-04-09T00:34:42.760Z,14.60
2023-04-09T00:37:11.252Z,13.60
2023-04-09T00:39:39.438Z,13.90
2023-04-09T00:42:07.644Z,13.10
2023-04-09T00:44:35.986Z,13.30
2023-04-09T00:47:04.194Z,13.10
2023-04-09T00:49:32.407Z,12.50
2023-04-09T00:52:00.836Z,12.30
2023-04-09T00:54:29.222Z,12.30
2023-04-09T00:56:57.748Z,13.10
2023-04-09T00:59:26.687Z,13.20
2023-04-09T01:01:55.020Z,12.30
2023-04-09T01:04:24.824Z,12.20
2023-04-09T01:06:59.835Z,11.20
2023-04-09T01:09:34.092Z,10.20
2023-04-09T01:12:14.698Z,9.90
2023-04-09T01:14:59.114Z,10.60
2023-04-09T01:17:50.955Z,10.80
2023-04-09T01:20:44.028Z,10.90
2023-04-09T01:23:27.513Z,10.80
2023-04-09T01:26:04.919Z,11.00
2023-04-09T01:28:49.373Z,10.90
2023-04-09T01:31:20.473Z,10.80
2023-04-09T01:33:48.801Z,11.00
2023-04-09T01:36:17.556Z,11.00
2023-04-09T01:38:47.801Z,11.40
2023-04-09T01:41:22.130Z,11.30
2023-04-09T01:43:54.201Z,11.30
2023-04-09T01:49:40.050Z,10.80
2023-04-09T01:52:10.178Z,10.80
2023-04-09T01:54:38.562Z,10.80
2023-04-09T01:57:06.928Z,10.70
2023-04-09T01:59:35.219Z,11.10
2023-04-09T02:02:12.571Z,10.30
2023-04-09T02:04:44.483Z,11.10
2023-04-09T02:07:19.958Z,10.70
2023-04-09T02:09:52.294Z,11.10
2023-04-09T02:12:22.078Z,10.70
2023-04-09T02:17:19.986Z,10.30
2023-04-09T02:19:48.814Z,10.50
2023-04-09T02:22:17.431Z,10.30
2023-04-09T02:24:46.820Z,10.10
2023-04-09T02:27:15.116Z,9.80
2023-04-09T02:29:43.735Z,10.90
2023-04-09T02:32:11.889Z,10.30
2023-04-09T02:34:40.176Z,10.20
2023-04-09T02:37:08.548Z,10.30
2023-04-09T02:39:36.765Z,10.20
2023-04-09T02:42:05.921Z,10.20
2023-04-09T02:44:34.781Z,11.60
2023-04-09T02:47:03.436Z,10.90
2023-04-09T02:49:31.655Z,11.50
2023-04-09T02:51:59.912Z,11.70
2023-04-09T02:54:28.183Z,11.20
2023-04-09T02:56:56.906Z,11.50
2023-04-09T02:59:25.216Z,11.10
2023-04-09T03:01:53.548Z,11.20
2023-04-09T03:04:21.945Z,11.00
2023-04-09T03:06:51.822Z,12.10
2023-04-09T03:09:20.070Z,11.90
2023-04-09T03:11:48.303Z,11.20
2023-04-09T03:14:16.523Z,12.00
2023-04-09T03:16:44.752Z,11.80
2023-04-09T03:19:12.935Z,11.10
2023-04-09T03:21:41.522Z,11.20
2023-04-09T03:24:09.745Z,11.70
2023-04-09T03:26:38.336Z,12.20
2023-04-09T03:29:07.565Z,10.90
2023-04-09T03:31:35.816Z,11.80
2023-04-09T03:34:04.181Z,10.90
2023-04-09T03:36:33.051Z,11.70
2023-04-09T03:39:02.147Z,12.50
2023-04-09T03:41:30.333Z,12.00
2023-04-09T03:43:58.661Z,13.20
2023-04-09T03:46:26.996Z,12.60
2023-04-09T03:48:55.248Z,12.40
2023-04-09T03:51:23.573Z,11.30
2023-04-09T03:53:51.819Z,11.40
2023-04-09T03:56:20.006Z,11.60
2023-04-09T03:58:49.888Z,11.60
2023-04-09T04:03:46.438Z,11.80
2023-04-09T04:06:15.032Z,10.90
2023-04-09T04:08:44.260Z,11.10
2023-04-09T04:11:12.483Z,10.20
2023-04-09T04:13:41.073Z,11.50
2023-04-09T04:16:10.129Z,11.60
2023-04-09T04:18:38.849Z,10.90
2023-04-09T04:21:13.545Z,11.80
2023-04-09T04:23:42.003Z,11.20
2023-04-09T04:26:11.098Z,11.20
2023-04-09T04:28:40.615Z,10.10
2023-04-09T04:31:12.773Z,11.30
2023-04-09T04:33:42.385Z,10.60
2023-04-09T04:36:13.075Z,11.50
2023-04-09T04:38:42.027Z,10.30
2023-04-09T04:41:12.438Z,10.70
2023-04-09T04:43:41.655Z,10.40
2023-04-09T04:46:09.868Z,11.20
2023-04-09T04:48:38.722Z,10.80
2023-04-09T04:51:06.927Z,9.90
2023-04-09T04:53:35.144Z,10.80
2023-04-09T04:56:03.590Z,10.70
2023-04-09T04:58:31.827Z,10.50
2023-04-09T05:01:00.743Z,10.80
2023-04-09T05:03:29.140Z,11.70
2023-04-09T05:05:57.328Z,10.00
2023-04-09T05:08:25.523Z,10.80
2023-04-09T05:10:56.409Z,10.80
2023-04-09T05:13:25.064Z,10.20
2023-04-09T05:15:53.658Z,10.20
2023-04-09T05:18:21.906Z,9.80
2023-04-09T05:20:50.110Z,9.90
2023-04-09T05:23:18.348Z,10.60
2023-04-09T05:25:49.032Z,11.50
2023-04-09T05:28:18.000Z,11.80
2023-04-09T05:30:47.556Z,10.80
2023-04-09T05:33:16.299Z,13.10
2023-04-09T05:35:44.578Z,12.50
2023-04-09T05:38:14.067Z,10.80
2023-04-09T05:40:44.620Z,9.80
2023-04-09T05:43:12.960Z,10.60
2023-04-09T05:45:41.634Z,11.10
2023-04-09T05:48:09.895Z,10.90
2023-04-09T05:50:51.151Z,12.20
2023-04-09T05:53:24.044Z,9.70
2023-04-09T05:55:52.305Z,12.00
2023-04-09T05:58:20.714Z,11.00
2023-04-09T06:00:48.912Z,11.00
2023-04-09T06:03:17.248Z,10.50
2023-04-09T06:05:46.858Z,11.40
2023-04-09T06:08:15.138Z,10.80
2023-04-09T06:10:43.486Z,10.60
2023-04-09T06:13:11.788Z,10.60
2023-04-09T06:15:40.093Z,10.80
2023-04-09T06:18:08.541Z,11.50
2023-04-09T06:20:36.936Z,11.70
2023-04-09T06:23:05.966Z,9.80
2023-04-09T06:25:35.532Z,11.60
2023-04-09T06:28:03.793Z,11.20
2023-04-09T06:30:37.234Z,10.40
2023-04-09T06:33:05.791Z,11.20
2023-04-09T06:35:34.002Z,11.80
2023-04-09T06:38:02.257Z,11.90
2023-04-09T06:40:31.011Z,12.50
2023-04-09T06:42:59.235Z,11.70
2023-04-09T06:45:28.542Z,11.00
2023-04-09T06:47:57.252Z,12.80
2023-04-09T06:50:25.774Z,9.80
2023-04-09T06:52:57.611Z,12.90
2023-04-09T06:55:27.241Z,12.00
2023-04-09T06:57:55.508Z,12.70
2023-04-09T07:00:31.311Z,12.10
2023-04-09T07:02:59.826Z,12.60
2023-04-09T07:05:28.275Z,13.50
2023-04-09T07:07:56.589Z,13.30
2023-04-09T07:10:24.804Z,14.00
2023-04-09T07:12:53.615Z,13.30
2023-04-09T07:15:21.907Z,14.10
2023-04-09T07:17:50.169Z,13.90
2023-04-09T07:20:18.557Z,14.70
2023-04-09T07:22:46.909Z,15.50
2023-04-09T07:25:16.331Z,13.60
2023-04-09T07:27:44.756Z,14.70
2023-04-09T07:30:13.074Z,16.10
2023-04-09T07:32:41.505Z,16.20
2023-04-09T07:35:11.850Z,16.80
2023-04-09T07:37:40.387Z,18.40
2023-04-09T07:40:09.215Z,15.40
2023-04-09T07:42:39.243Z,14.30
2023-04-09T07:45:08.172Z,15.80
2023-04-09T07:47:38.962Z,21.20
2023-04-09T07:50:08.086Z,30.10
2023-04-09T07:52:36.549Z,32.30
2023-04-09T07:55:05.319Z,43.10
2023-04-09T07:57:33.864Z,35.10
2023-04-09T08:00:02.532Z,42.00
2023-04-09T08:02:31.433Z,18.20
2023-04-09T08:05:00.214Z,15.60
2023-04-09T08:07:28.546Z,15.00
2023-04-09T08:09:56.864Z,15.30
2023-04-09T08:12:25.154Z,14.80
2023-04-09T08:14:53.321Z,16.00
2023-04-09T08:17:22.470Z,16.00
2023-04-09T08:19:50.893Z,14.70
2023-04-09T08:22:19.059Z,24.90
2023-04-09T08:24:52.186Z,20.60
2023-04-09T08:27:20.539Z,15.10
2023-04-09T08:29:49.472Z,16.10
2023-04-09T08:32:17.886Z,23.10
2023-04-09T08:34:46.239Z,24.70
2023-04-09T08:37:14.952Z,18.90
2023-04-09T08:39:43.652Z,16.00
2023-04-09T08:42:13.971Z,15.80
2023-04-09T08:44:42.358Z,14.30
2023-04-09T08:47:11.947Z,15.10
2023-04-09T08:49:41.558Z,17.70
2023-04-09T08:52:09.995Z,16.20
2023-04-09T08:54:38.404Z,14.90
2023-04-09T08:57:07.007Z,16.00
2023-04-09T08:59:37.358Z,14.80
2023-04-09T09:02:11.566Z,15.70
2023-04-09T09:04:48.990Z,11.20
2023-04-09T09:07:18.501Z,10.00
2023-04-09T09:09:58.858Z,10.70
2023-04-09T09:12:39.383Z,10.50
2023-04-09T09:15:29.153Z,9.20
2023-04-09T09:17:59.915Z,9.20
2023-04-09T09:20:29.049Z,10.00
2023-04-09T09:22:57.852Z,8.50
2023-04-09T09:25:26.898Z,9.40
2023-04-09T09:27:55.516Z,9.40
2023-04-09T09:30:26.191Z,7.80
2023-04-09T09:33:05.931Z,7.60
2023-04-09T09:35:57.870Z,7.30
2023-04-09T09:38:26.295Z,6.90
2023-04-09T09:40:54.676Z,7.10
2023-04-09T09:43:22.985Z,8.10
2023-04-09T09:45:51.288Z,6.20
2023-04-09T09:48:19.666Z,7.30
2023-04-09T09:50:50.566Z,6.10
2023-04-09T09:53:25.854Z,6.80
2023-04-09T09:55:59.827Z,7.30
2023-04-09T09:58:36.965Z,5.70
2023-04-09T10:01:11.564Z,6.30
2023-04-09T10:03:41.176Z,5.40
2023-04-09T10:06:10.206Z,6.20
2023-04-09T10:08:41.923Z,5.80
2023-04-09T10:11:10.768Z,5.60
2023-04-09T10:13:47.008Z,5.50
2023-04-09T10:16:16.901Z,5.70
2023-04-09T10:21:25.078Z,5.20
2023-04-09T10:26:27.962Z,7.10
2023-04-09T10:29:14.196Z,5.30
2023-04-09T10:31:55.476Z,5.10
2023-04-09T10:34:28.160Z,7.90
2023-04-09T10:36:58.082Z,5.00
2023-04-09T10:39:28.792Z,4.80
2023-04-09T10:41:58.423Z,4.80
2023-04-09T10:44:31.518Z,4.90
2023-04-09T10:46:59.873Z,4.90
2023-04-09T10:49:37.064Z,4.40
2023-04-09T10:52:07.876Z,5.10
2023-04-09T10:54:46.404Z,5.70
2023-04-09T10:57:16.869Z,4.60
2023-04-09T10:59:55.990Z,4.40
2023-04-09T11:02:40.265Z,5.10
2023-04-09T11:05:18.453Z,4.60
2023-04-09T11:07:53.831Z,4.60
2023-04-09T11:10:22.182Z,4.90
2023-04-09T11:12:50.527Z,4.60
2023-04-09T11:15:20.106Z,5.60
2023-04-09T11:17:49.687Z,4.70
2023-04-09T11:20:21.724Z,4.70
2023-04-09T11:22:52.481Z,4.60
2023-04-09T11:25:20.945Z,5.00
2023-04-09T11:27:49.643Z,4.60
2023-04-09T11:30:18.077Z,4.80
2023-04-09T11:32:47.015Z,4.60
2023-04-09T11:35:17.422Z,4.80
2023-04-09T11:37:46.753Z,4.50
2023-04-09T11:40:21.227Z,4.50
2023-04-09T11:42:51.725Z,5.00
2023-04-09T11:45:23.557Z,4.50
2023-04-09T11:47:52.565Z,4.50
2023-04-09T11:50:22.233Z,4.10
2023-04-09T11:52:51.209Z,3.90
2023-04-09T11:55:27.393Z,4.60
2023-04-09T11:58:03.502Z,4.80
2023-04-09T12:00:32.766Z,4.90
2023-04-09T12:03:04.428Z,4.40
2023-04-09T12:05:35.328Z,4.20
2023-04-09T12:08:07.487Z,4.20
2023-04-09T12:10:38.450Z,4.40
2023-04-09T12:13:10.451Z,4.10
2023-04-09T12:15:41.807Z,4.40
2023-04-09T12:18:14.162Z,4.40
2023-04-09T12:20:44.835Z,4.00
2023-04-09T12:23:13.692Z,4.20
2023-04-09T12:25:45.729Z,4.20
2023-04-09T12:28:18.649Z,4.60
2023-04-09T12:30:48.520Z,4.40
2023-04-09T12:33:16.966Z,4.40
2023-04-09T12:35:45.346Z,4.60
2023-04-09T12:38:13.801Z,4.50
2023-04-09T12:40:42.090Z,5.20
2023-04-09T12:43:10.801Z,4.70
2023-04-09T12:45:40.875Z,4.10
2023-04-09T12:48:09.346Z,4.70
2023-04-09T12:50:37.797Z,4.50
2023-04-09T12:53:06.042Z,4.10
2023-04-09T12:55:34.487Z,4.50
2023-04-09T12:58:02.795Z,4.10
2023-04-09T13:00:31.450Z,4.30
2023-04-09T13:02:59.968Z,4.50
2023-04-09T13:05:29.020Z,4.30
2023-04-09T13:07:57.512Z,4.10
2023-04-09T13:10:25.900Z,4.70
2023-04-09T13:12:54.088Z,4.30
2023-04-09T13:15:22.999Z,5.60
2023-04-09T13:17:51.363Z,6.70
2023-04-09T13:20:19.806Z,5.30
2023-04-09T13:22:49.841Z,5.40
2023-04-09T13:25:18.350Z,5.10
2023-04-09T13:27:46.645Z,4.80
2023-04-09T13:30:15.113Z,5.00
2023-04-09T13:32:43.983Z,4.60
2023-04-09T13:35:12.264Z,4.80
2023-04-09T13:37:40.722Z,4.50
2023-04-09T13:40:10.193Z,4.70
2023-04-09T13:42:38.735Z,4.80
2023-04-09T13:45:07.404Z,4.30
2023-04-09T13:47:35.668Z,4.60
2023-04-09T13:50:04.418Z,4.10
2023-04-09T13:52:33.325Z,5.00
2023-04-09T13:55:01.755Z,4.80
2023-04-09T13:57:30.097Z,4.10
2023-04-09T14:00:02.198Z,4.00
2023-04-09T14:02:31.121Z,4.20
2023-04-09T14:05:00.201Z,4.40
2023-04-09T14:07:28.636Z,4.10
2023-04-09T14:09:57.070Z,4.70
2023-04-09T14:12:25.460Z,4.20
2023-04-09T14:14:53.722Z,4.50
2023-04-09T14:17:22.129Z,4.60
2023-04-09T14:19:50.522Z,4.20
2023-04-09T14:22:18.846Z,3.80
2023-04-09T14:24:47.139Z,4.30
2023-04-09T14:27:15.919Z,4.20
2023-04-09T14:29:44.341Z,4.10
2023-04-09T14:32:12.591Z,4.10
2023-04-09T14:34:41.685Z,4.10
2023-04-09T14:37:10.091Z,3.80
2023-04-09T14:39:38.478Z,3.80
2023-04-09T14:42:07.312Z,4.20
2023-04-09T14:44:35.674Z,6.00
2023-04-09T14:47:04.179Z,9.30
2023-04-09T14:49:32.592Z,8.10
2023-04-09T14:52:01.162Z,7.20
2023-04-09T14:54:31.460Z,4.80
2023-04-09T14:56:59.913Z,5.30
2023-04-09T14:59:28.250Z,4.60
2023-04-09T15:01:56.630Z,4.70
2023-04-09T15:04:25.030Z,4.50
2023-04-09T15:06:53.466Z,5.60
2023-04-09T15:09:21.771Z,3.90
2023-04-09T15:11:50.084Z,4.70
2023-04-09T15:14:20.548Z,7.30
2023-04-09T15:16:48.972Z,5.90
2023-04-09T15:19:17.482Z,4.30
2023-04-09T15:21:45.729Z,3.90
2023-04-09T15:24:13.956Z,5.00
2023-04-09T15:26:42.186Z,4.90
2023-04-09T15:29:10.829Z,3.90
2023-04-09T15:31:41.261Z,3.90
2023-04-09T15:34:10.071Z,3.80
2023-04-09T15:36:38.570Z,4.30
2023-04-09T15:39:06.928Z,3.80
2023-04-09T15:41:35.279Z,5.60
2023-04-09T15:44:04.345Z,5.00
2023-04-09T15:46:32.543Z,5.60
2023-04-09T15:49:01.011Z,4.60
2023-04-09T15:51:29.477Z,4.40
2023-04-09T15:53:58.776Z,4.50
2023-04-09T15:56:27.080Z,4.60
2023-04-09T15:58:55.677Z,4.50
2023-04-09T16:01:24.119Z,4.30
2023-04-09T16:03:52.559Z,3.90
2023-04-09T16:06:21.307Z,5.30
2023-04-09T16:08:49.596Z,4.10
2023-04-09T16:11:18.048Z,3.60
2023-04-09T16:13:46.452Z,4.10
2023-04-09T16:16:15.047Z,4.20
2023-04-09T16:18:43.336Z,4.30
2023-04-09T16:21:11.606Z,5.20
2023-04-09T16:23:41.081Z,4.60
2023-04-09T16:26:10.737Z,4.00
2023-04-09T16:28:39.053Z,3.80
2023-04-09T16:31:08.394Z,4.00
2023-04-09T16:33:36.677Z,4.10
2023-04-09T16:36:05.666Z,3.90
2023-04-09T16:38:34.123Z,5.60
2023-04-09T16:41:02.362Z,4.20
2023-04-09T16:43:30.743Z,4.30
2023-04-09T16:45:59.020Z,4.50
2023-04-09T16:48:27.407Z,4.50
2023-04-09T16:50:55.893Z,5.10
2023-04-09T16:53:24.394Z,3.90
2023-04-09T16:55:52.756Z,3.60
2023-04-09T16:58:21.267Z,3.50
2023-04-09T17:00:52.236Z,3.80
2023-04-09T17:03:22.539Z,4.60
2023-04-09T17:05:51.211Z,5.20
2023-04-09T17:08:24.429Z,5.20
2023-04-09T17:10:55.041Z,4.30
2023-04-09T17:13:23.436Z,4.80
2023-04-09T17:15:52.405Z,5.90
2023-04-09T17:18:21.080Z,4.30
2023-04-09T17:20:49.469Z,3.00
2023-04-09T17:23:18.216Z,3.60
2023-04-09T17:25:47.339Z,6.40
2023-04-09T17:28:18.624Z,11.90
2023-04-09T17:30:47.458Z,12.80
2023-04-09T17:33:15.813Z,29.50
2023-04-09T17:35:44.160Z,31.90
2023-04-09T17:38:17.340Z,33.80
2023-04-09T17:40:46.328Z,31.80
2023-04-09T17:43:17.648Z,31.50
2023-04-09T17:45:46.278Z,32.50
2023-04-09T17:48:14.977Z,29.30
2023-04-09T17:50:43.738Z,34.00
2023-04-09T17:53:12.136Z,40.10
2023-04-09T17:55:46.718Z,38.40
2023-04-09T17:58:15.603Z,44.10
2023-04-09T18:00:44.552Z,42.70
2023-04-09T18:03:13.289Z,65.90
2023-04-09T18:05:42.242Z,55.30
2023-04-09T18:08:10.965Z,65.40
2023-04-09T18:10:39.246Z,59.10
2023-04-09T18:13:07.633Z,52.40
2023-04-09T18:15:36.432Z,49.40
2023-04-09T18:18:04.714Z,45.90
2023-04-09T18:20:33.065Z,18.40
2023-04-09T18:23:01.238Z,12.60
2023-04-09T18:25:29.543Z,17.30
2023-04-09T18:27:57.871Z,39.20
2023-04-09T18:30:26.603Z,52.20
2023-04-09T18:32:54.971Z,62.10
2023-04-09T18:35:23.383Z,54.50
2023-04-09T18:37:51.711Z,43.60
2023-04-09T18:40:22.753Z,27.90
2023-04-09T18:42:54.587Z,18.10
2023-04-09T18:45:23.046Z,8.80
2023-04-09T18:47:51.471Z,8.10
2023-04-09T18:50:19.892Z,7.00
2023-04-09T18:52:48.759Z,8.10
2023-04-09T18:55:18.434Z,7.00
2023-04-09T18:57:49.393Z,5.60
2023-04-09T19:00:17.789Z,6.30
2023-04-09T19:02:46.608Z,5.20
2023-04-09T19:05:15.135Z,4.20
2023-04-09T19:07:43.608Z,5.20
2023-04-09T19:10:13.477Z,4.10
2023-04-09T19:12:48.722Z,3.90
2023-04-09T19:15:19.086Z,5.20
2023-04-09T19:17:48.717Z,4.70
2023-04-09T19:20:17.127Z,5.80
2023-04-09T19:22:52.074Z,5.10
2023-04-09T19:25:21.597Z,4.60
2023-04-09T19:27:49.987Z,4.50
2023-04-09T19:30:18.279Z,4.40
2023-04-09T19:32:46.648Z,4.80
2023-04-09T19:35:15.140Z,4.90
2023-04-09T19:37:43.981Z,5.10
2023-04-09T19:40:12.688Z,4.30
2023-04-09T19:42:41.395Z,5.30
2023-04-09T19:45:10.121Z,4.20
2023-04-09T19:47:38.383Z,3.90
2023-04-09T19:50:07.189Z,4.00
2023-04-09T19:52:35.673Z,4.80
2023-04-09T19:55:05.319Z,4.80
2023-04-09T19:57:33.654Z,4.40
2023-04-09T20:00:02.017Z,5.70
2023-04-09T20:02:30.681Z,8.90
2023-04-09T20:05:00.370Z,6.60
2023-04-09T20:07:28.655Z,5.60
2023-04-09T20:09:57.854Z,6.00
2023-04-09T20:12:29.629Z,5.40
2023-04-09T20:14:59.053Z,4.90
2023-04-09T20:17:27.477Z,5.20
2023-04-09T20:19:56.364Z,5.50
2023-04-09T20:22:24.762Z,5.50
2023-04-09T20:24:53.162Z,5.20
2023-04-09T20:27:22.783Z,4.60
2023-04-09T20:29:53.006Z,4.90
2023-04-09T20:32:21.461Z,5.40
2023-04-09T20:34:50.029Z,5.40
2023-04-09T20:37:18.322Z,4.70
2023-04-09T20:39:46.906Z,4.50
2023-04-09T20:42:15.127Z,4.70
2023-04-09T20:44:43.493Z,4.80
2023-04-09T20:47:12.646Z,11.30
2023-04-09T20:49:42.691Z,7.90
2023-04-09T20:54:39.677Z,5.10
2023-04-09T20:57:08.643Z,5.80
2023-04-09T20:59:37.412Z,5.60
2023-04-09T21:02:06.069Z,6.00
2023-04-09T21:04:34.569Z,5.50
2023-04-09T21:07:02.914Z,5.10
2023-04-09T21:09:31.793Z,5.70
2023-04-09T21:12:02.773Z,5.50
2023-04-09T21:14:31.852Z,5.40
2023-04-09T21:17:00.199Z,5.50
2023-04-09T21:19:28.599Z,6.10
2023-04-09T21:21:57.004Z,6.10
2023-04-09T21:24:27.026Z,6.90
2023-04-09T21:26:55.722Z,6.20
2023-04-09T21:29:23.977Z,6.00
2023-04-09T21:31:52.421Z,5.90
2023-04-09T21:34:20.837Z,5.30
2023-04-09T21:36:49.054Z,5.60
2023-04-09T21:39:17.317Z,5.70
2023-04-09T21:41:46.071Z,5.50
2023-04-09T21:44:14.800Z,4.80
2023-04-09T21:46:43.263Z,5.00
2023-04-09T21:49:11.941Z,5.50
2023-04-09T21:51:40.317Z,5.60
2023-04-09T21:54:09.902Z,5.50
2023-04-09T21:56:39.549Z,4.80
2023-04-09T21:59:07.839Z,5.20
2023-04-09T22:01:36.221Z,5.10
2023-04-09T22:04:04.895Z,4.90
2023-04-09T22:06:33.303Z,5.30
2023-04-09T22:09:02.165Z,4.70
2023-04-09T22:11:30.834Z,5.20
2023-04-09T22:13:59.227Z,5.00
2023-04-09T22:16:27.805Z,5.40
2023-04-09T22:18:57.260Z,5.10
2023-04-09T22:21:26.682Z,5.40
2023-04-09T22:23:54.970Z,6.20
2023-04-09T22:26:24.027Z,5.70
2023-04-09T22:28:52.768Z,6.10
2023-04-09T22:31:21.778Z,6.00
2023-04-09T22:33:50.179Z,6.00
2023-04-09T22:36:18.552Z,6.30
2023-04-09T22:38:46.818Z,6.50
2023-04-09T22:41:17.771Z,6.60
2023-04-09T22:43:46.017Z,6.10
2023-04-09T22:46:14.330Z,6.30
2023-04-09T22:48:44.894Z,5.90
2023-04-09T22:51:14.392Z,6.10
2023-04-09T22:53:42.860Z,6.40
2023-04-09T22:56:11.156Z,6.10
2023-04-09T22:58:40.256Z,5.80
2023-04-09T23:01:09.372Z,6.20
2023-04-09T23:03:37.802Z,6.10
2023-04-09T23:06:07.275Z,7.00
2023-04-09T23:08:35.510Z,7.20
2023-04-09T23:11:05.480Z,7.40
2023-04-09T23:16:06.051Z,6.60
2023-04-09T23:18:37.711Z,6.30
2023-04-09T23:21:09.881Z,6.30
2023-04-09T23:23:39.002Z,6.90
2023-04-09T23:26:07.457Z,6.10
2023-04-09T23:28:35.716Z,6.50
2023-04-09T23:31:04.070Z,7.60
2023-04-09T23:33:32.906Z,7.80
2023-04-09T23:36:01.117Z,8.20
2023-04-09T23:38:29.330Z,8.00
2023-04-09T23:40:57.674Z,7.20
2023-04-09T23:43:26.060Z,6.70
2023-04-09T23:45:54.272Z,6.30
2023-04-09T23:48:22.569Z,6.60
2023-04-09T23:50:50.846Z,6.20
2023-04-09T23:53:19.141Z,6.60
2023-04-09T23:55:48.035Z,5.70
2023-04-09T23:58:16.269Z,5.80
